createdAt,value
2022-08-20T00:01:09.825Z,100.00
2022-08-20T00:06:19.167Z,100.00
2022-08-20T00:11:25.169Z,100.00
2022-08-20T00:16:32.618Z,100.00
2022-08-20T00:21:36.730Z,100.00
2022-08-20T00:26:38.833Z,100.00
2022-08-20T00:31:54.509Z,100.00
2022-08-20T00:36:56.921Z,100.00
2022-08-20T00:41:59.618Z,100.00
2022-08-20T00:47:02.557Z,100.00
2022-08-20T00:52:05.117Z,100.00
2022-08-20T00:57:22.215Z,100.00
2022-08-20T01:02:28.315Z,100.00
2022-08-20T01:07:37.291Z,100.00
2022-08-20T01:12:42.297Z,100.00
2022-08-20T01:17:49.683Z,100.00
2022-08-20T01:23:27.966Z,100.00
2022-08-20T01:29:01.984Z,100.00
2022-08-20T01:34:09.092Z,100.00
2022-08-20T01:39:15.281Z,100.00
2022-08-20T01:44:18.463Z,100.00
2022-08-20T01:49:30.274Z,100.00
2022-08-20T01:54:34.267Z,100.00
2022-08-20T01:59:37.298Z,100.00
2022-08-20T02:04:41.150Z,100.00
2022-08-20T02:09:44.626Z,100.00
2022-08-20T02:14:51.472Z,100.00
2022-08-20T02:20:10.602Z,100.00
2022-08-20T02:25:14.708Z,100.00
2022-08-20T02:30:27.755Z,100.00
2022-08-20T02:35:31.673Z,100.00
2022-08-20T02:40:36.656Z,100.00
2022-08-20T02:45:44.151Z,100.00
2022-08-20T02:50:47.522Z,100.00
2022-08-20T02:55:50.032Z,100.00
2022-08-20T03:00:53.051Z,100.00
2022-08-20T03:05:59.442Z,100.00
2022-08-20T03:11:01.802Z,100.00
2022-08-20T03:16:05.229Z,100.00
2022-08-20T03:21:09.858Z,100.00
2022-08-20T03:26:13.832Z,100.00
2022-08-20T03:31:16.247Z,100.00
2022-08-20T03:36:20.797Z,100.00
2022-08-20T03:41:32.373Z,100.00
2022-08-20T03:46:35.216Z,100.00
2022-08-20T03:51:56.393Z,100.00
2022-08-20T03:57:01.512Z,100.00
2022-08-20T04:02:03.807Z,100.00
2022-08-20T04:07:20.772Z,100.00
2022-08-20T04:12:24.637Z,100.00
2022-08-20T04:17:27.440Z,100.00
2022-08-20T04:22:30.125Z,100.00
2022-08-20T04:27:35.466Z,100.00
2022-08-20T04:32:39.159Z,100.00
2022-08-20T04:37:42.449Z,100.00
2022-08-20T04:42:44.581Z,100.00
2022-08-20T04:47:47.336Z,100.00
2022-08-20T04:52:50.159Z,100.00
2022-08-20T04:57:54.111Z,100.00
2022-08-20T05:02:56.311Z,100.00
2022-08-20T05:07:58.650Z,100.00
2022-08-20T05:13:01.008Z,100.00
2022-08-20T05:18:06.019Z,100.00
2022-08-20T05:23:12.263Z,100.00
2022-08-20T05:28:19.803Z,100.00
2022-08-20T05:33:23.769Z,97.94
2022-08-20T05:38:29.118Z,91.44
2022-08-20T05:43:33.835Z,85.98
2022-08-20T05:48:36.187Z,81.78
2022-08-20T05:53:40.377Z,75.92
2022-08-20T05:58:42.629Z,64.30
2022-08-20T06:04:03.509Z,47.60
2022-08-20T06:09:06.050Z,43.22
2022-08-20T06:14:08.301Z,39.58
2022-08-20T06:19:11.705Z,36.12
2022-08-20T06:24:15.778Z,34.96
2022-08-20T06:29:18.797Z,32.00
2022-08-20T06:34:21.186Z,31.89
2022-08-20T06:39:25.048Z,31.19
2022-08-20T06:44:28.659Z,29.56
2022-08-20T06:49:35.442Z,29.02
2022-08-20T06:54:37.755Z,28.86
2022-08-20T06:59:40.424Z,28.75
2022-08-20T07:04:45.043Z,30.07
2022-08-20T07:09:47.592Z,29.25
2022-08-20T07:14:53.384Z,31.32
2022-08-20T07:19:56.038Z,33.20
2022-08-20T07:24:58.173Z,34.67
2022-08-20T07:30:20.060Z,36.01
2022-08-20T07:35:22.796Z,34.95
2022-08-20T07:40:30.801Z,31.95
2022-08-20T07:45:36.506Z,31.34
2022-08-20T07:50:39.059Z,28.88
2022-08-20T07:55:41.860Z,28.21
2022-08-20T08:01:01.322Z,27.49
2022-08-20T08:06:05.198Z,28.22
2022-08-20T08:11:08.259Z,26.86
2022-08-20T08:16:10.681Z,27.67
2022-08-20T08:21:13.288Z,26.99
2022-08-20T08:26:19.003Z,27.74
2022-08-20T08:31:21.657Z,30.08
2022-08-20T08:36:26.518Z,28.73
2022-08-20T08:41:49.713Z,29.21
2022-08-20T08:46:58.911Z,30.95
2022-08-20T08:52:07.496Z,30.07
2022-08-20T08:57:10.958Z,28.60
2022-08-20T09:02:20.393Z,30.92
2022-08-20T09:07:26.647Z,30.48
2022-08-20T09:12:29.034Z,30.29
2022-08-20T09:17:31.445Z,31.65
2022-08-20T09:22:34.016Z,32.98
2022-08-20T09:27:36.394Z,34.90
2022-08-20T09:32:41.586Z,31.88
2022-08-20T09:37:44.077Z,30.25
2022-08-20T09:42:48.591Z,28.76
2022-08-20T09:54:03.762Z,29.33
2022-08-20T09:59:06.696Z,29.02
2022-08-20T10:04:08.926Z,26.91
2022-08-20T10:10:01.731Z,27.83
2022-08-20T10:20:57.643Z,26.68
2022-08-20T10:26:00.159Z,30.34
2022-08-20T10:31:02.366Z,27.47
2022-08-20T10:36:17.524Z,26.10
2022-08-20T10:41:21.630Z,27.79
2022-08-20T10:46:23.798Z,27.29
2022-08-20T10:51:32.641Z,27.47
2022-08-20T10:56:36.592Z,30.56
2022-08-20T11:01:39.629Z,29.50
2022-08-20T11:06:42.554Z,27.62
2022-08-20T11:11:44.773Z,29.08
2022-08-20T11:16:46.873Z,29.43
2022-08-20T11:21:49.121Z,31.69
2022-08-20T11:26:53.434Z,34.28
2022-08-20T11:31:55.861Z,36.13
2022-08-20T11:36:59.377Z,33.09
2022-08-20T11:42:02.061Z,28.59
2022-08-20T11:47:06.397Z,24.61
2022-08-20T11:52:09.152Z,23.21
2022-08-20T11:57:12.047Z,22.79
2022-08-20T12:02:14.148Z,22.80
2022-08-20T12:07:19.624Z,24.69
2022-08-20T12:12:24.753Z,25.68
2022-08-20T12:17:30.726Z,25.89
2022-08-20T12:22:33.703Z,27.81
2022-08-20T12:27:37.922Z,28.56
2022-08-20T12:32:40.745Z,28.32
2022-08-20T12:37:44.347Z,30.78
2022-08-20T12:42:47.103Z,29.75
2022-08-20T12:47:50.022Z,29.18
2022-08-20T12:52:52.689Z,29.61
2022-08-20T12:58:01.469Z,29.59
2022-08-20T13:03:07.004Z,30.07
2022-08-20T13:08:12.163Z,29.34
2022-08-20T13:13:20.193Z,29.88
2022-08-20T13:18:23.216Z,30.40
2022-08-20T13:23:25.487Z,30.40
2022-08-20T13:28:28.651Z,30.55
2022-08-20T13:33:31.045Z,31.42
2022-08-20T13:38:34.623Z,30.49
2022-08-20T13:43:37.008Z,30.45
2022-08-20T13:48:39.389Z,30.34
2022-08-20T13:53:41.526Z,29.90
2022-08-20T13:58:46.309Z,30.34
2022-08-20T14:03:51.396Z,31.13
2022-08-20T14:08:54.280Z,31.98
2022-08-20T14:13:56.473Z,32.35
2022-08-20T14:18:58.861Z,33.33
2022-08-20T14:24:02.140Z,33.28
2022-08-20T14:29:04.302Z,32.76
2022-08-20T14:34:06.757Z,32.59
2022-08-20T14:39:08.917Z,33.04
2022-08-20T14:44:11.345Z,34.69
2022-08-20T14:49:13.436Z,35.22
2022-08-20T14:54:15.690Z,34.99
2022-08-20T14:59:18.037Z,36.56
2022-08-20T15:04:20.358Z,36.92
2022-08-20T15:09:22.640Z,36.92
2022-08-20T15:14:25.329Z,37.67
2022-08-20T15:19:29.962Z,37.15
2022-08-20T15:25:02.979Z,37.41
2022-08-20T15:30:11.408Z,42.44
2022-08-20T15:35:14.959Z,44.70
2022-08-20T15:40:24.483Z,47.23
2022-08-20T15:45:30.019Z,48.89
2022-08-20T15:51:30.476Z,52.48
2022-08-20T15:56:48.725Z,57.64
2022-08-20T16:02:09.488Z,61.09
2022-08-20T16:07:20.840Z,61.72
2022-08-20T16:12:35.202Z,64.46
2022-08-20T16:17:45.020Z,64.02
2022-08-20T16:22:47.736Z,70.62
2022-08-20T16:28:12.632Z,70.43
2022-08-20T16:33:22.213Z,70.34
2022-08-20T16:38:39.442Z,71.06
2022-08-20T16:43:51.361Z,70.13
2022-08-20T16:48:58.511Z,70.68
2022-08-20T16:54:00.982Z,71.58
2022-08-20T16:59:11.945Z,77.84
2022-08-20T17:04:23.234Z,78.14
2022-08-20T17:09:34.432Z,83.15
2022-08-20T17:14:48.420Z,81.13
2022-08-20T17:19:59.148Z,84.52
2022-08-20T17:25:15.206Z,83.23
2022-08-20T17:30:29.678Z,84.82
2022-08-20T17:35:44.141Z,85.60
2022-08-20T17:40:47.480Z,70.27
2022-08-20T17:45:50.967Z,66.98
2022-08-20T17:50:54.682Z,68.10
2022-08-20T17:56:04.301Z,69.23
2022-08-20T18:01:09.080Z,69.19
2022-08-20T18:06:28.487Z,69.24
2022-08-20T18:11:40.624Z,69.32
2022-08-20T18:16:50.143Z,70.36
2022-08-20T18:22:26.108Z,69.19
2022-08-20T18:27:38.427Z,68.88
2022-08-20T18:32:48.910Z,67.21
2022-08-20T18:37:55.862Z,69.25
2022-08-20T18:43:00.014Z,68.18
2022-08-20T18:48:06.782Z,67.58
2022-08-20T18:53:12.189Z,69.68
2022-08-20T18:58:38.644Z,70.62
2022-08-20T19:03:54.526Z,73.05
2022-08-20T19:09:08.551Z,71.79
2022-08-20T19:14:34.217Z,73.36
2022-08-20T19:19:47.167Z,73.72
2022-08-20T19:25:06.682Z,76.20
2022-08-20T19:30:42.493Z,77.08
2022-08-20T19:35:46.208Z,77.11
2022-08-20T19:41:11.808Z,77.41
2022-08-20T19:46:46.975Z,77.88
2022-08-20T19:52:23.616Z,79.13
2022-08-20T19:57:54.285Z,80.64
2022-08-20T20:02:58.233Z,78.25
2022-08-20T20:08:05.017Z,77.71
2022-08-20T20:13:15.526Z,80.78
2022-08-20T20:18:21.335Z,80.29
2022-08-20T20:23:38.584Z,80.98
2022-08-20T20:29:03.894Z,82.97
2022-08-20T20:34:14.850Z,82.66
2022-08-20T20:39:40.057Z,80.58
2022-08-20T20:44:46.118Z,83.19
2022-08-20T20:49:52.912Z,84.70
2022-08-20T20:55:21.037Z,86.58
2022-08-20T21:00:28.962Z,84.75
2022-08-20T21:05:35.509Z,88.57
2022-08-20T21:10:40.706Z,87.64
2022-08-20T21:15:43.279Z,89.00
2022-08-20T21:20:45.656Z,87.74
2022-08-20T21:25:47.958Z,87.57
2022-08-20T21:30:58.266Z,88.36
2022-08-20T21:36:04.973Z,88.60
2022-08-20T21:41:07.995Z,87.87
2022-08-20T21:46:12.728Z,89.06
2022-08-20T21:51:16.723Z,89.19
2022-08-20T21:56:19.515Z,90.77
2022-08-20T22:01:22.246Z,90.00
2022-08-20T22:06:25.026Z,96.38
2022-08-20T22:11:28.852Z,96.10
2022-08-20T22:16:31.587Z,99.48
2022-08-20T22:22:28.209Z,100.00
2022-08-20T22:27:32.382Z,99.96
2022-08-20T22:32:52.040Z,100.00
2022-08-20T22:37:57.661Z,100.00
2022-08-20T22:43:02.211Z,100.00
2022-08-20T22:48:06.494Z,100.00
2022-08-20T23:27:54.240Z,100.00
2022-08-20T23:32:56.827Z,100.00
2022-08-20T23:37:59.715Z,100.00
2022-08-20T23:43:01.940Z,100.00
2022-08-20T23:48:04.288Z,100.00
2022-08-20T23:53:06.905Z,100.00
2022-08-20T23:58:09.118Z,100.00
